sensor_id;sensor_type;location;lat;lon;timestamp;P1;durP1;ratioP1;P2;durP2;ratioP2
26020;SDS011;13798;48.858;9.092;2023-09-19T04:17:58;3.92;;;1.70;;
26020;SDS011;13798;48.858;9.092;2023-09-19T04:20:24;4.07;;;1.70;;
26020;SDS011;13798;48.858;9.092;2023-09-19T04:22:50;2.28;;;1.60;;
26020;SDS011;13798;48.858;9.092;2023-09-19T04:25:16;3.73;;;1.70;;
26020;SDS011;13798;48.858;9.092;2023-09-19T04:27:43;2.15;;;1.67;;
26020;SDS011;13798;48.858;9.092;2023-09-19T04:30:09;2.75;;;1.50;;
26020;SDS011;13798;48.858;9.092;2023-09-19T04:32:36;3.95;;;1.90;;
26020;SDS011;13798;48.858;9.092;2023-09-19T04:35:04;2.67;;;1.83;;
26020;SDS011;13798;48.858;9.092;2023-09-19T04:37:35;3.15;;;1.65;;
26020;SDS011;13798;48.858;9.092;2023-09-19T04:40:05;2.60;;;1.55;;
26020;SDS011;13798;48.858;9.092;2023-09-19T04:42:37;2.92;;;1.70;;
26020;SDS011;13798;48.858;9.092;2023-09-19T04:45:04;2.30;;;1.77;;
26020;SDS011;13798;48.858;9.092;2023-09-19T04:47:30;4.97;;;1.90;;
26020;SDS011;13798;48.858;9.092;2023-09-19T04:49:55;3.83;;;1.50;;
26020;SDS011;13798;48.858;9.092;2023-09-19T04:52:23;2.65;;;1.83;;
26020;SDS011;13798;48.858;9.092;2023-09-19T04:54:49;2.40;;;1.90;;
26020;SDS011;13798;48.858;9.092;2023-09-19T04:57:14;3.53;;;1.75;;
26020;SDS011;13798;48.858;9.092;2023-09-19T04:59:40;2.90;;;1.80;;
26020;SDS011;13798;48.858;9.092;2023-09-19T05:02:06;2.43;;;1.70;;
26020;SDS011;13798;48.858;9.092;2023-09-19T05:04:33;2.50;;;1.90;;
26020;SDS011;13798;48.858;9.092;2023-09-19T05:56:25;3.90;;;2.20;;
26020;SDS011;13798;48.858;9.092;2023-09-19T05:59:16;3.60;;;2.50;;
26020;SDS011;13798;48.858;9.092;2023-09-19T06:01:47;2.83;;;2.40;;
26020;SDS011;13798;48.858;9.092;2023-09-19T06:04:32;4.35;;;2.53;;
26020;SDS011;13798;48.858;9.092;2023-09-19T06:07:38;5.00;;;2.25;;
26020;SDS011;13798;48.858;9.092;2023-09-19T06:10:41;5.65;;;2.58;;
26020;SDS011;13798;48.858;9.092;2023-09-19T06:13:37;3.28;;;2.28;;
26020;SDS011;13798;48.858;9.092;2023-09-19T06:16:04;3.13;;;2.40;;
26020;SDS011;13798;48.858;9.092;2023-09-19T06:18:40;4.40;;;2.17;;
26020;SDS011;13798;48.858;9.092;2023-09-19T06:21:34;3.15;;;2.50;;
26020;SDS011;13798;48.858;9.092;2023-09-19T06:24:12;4.10;;;2.25;;
26020;SDS011;13798;48.858;9.092;2023-09-19T06:26:37;3.58;;;2.28;;
26020;SDS011;13798;48.858;9.092;2023-09-19T06:29:06;4.07;;;2.15;;
26020;SDS011;13798;48.858;9.092;2023-09-19T06:31:32;7.55;;;2.53;;
26020;SDS011;13798;48.858;9.092;2023-09-19T06:33:58;4.45;;;2.30;;
26020;SDS011;13798;48.858;9.092;2023-09-19T06:36:24;3.60;;;2.50;;
26020;SDS011;13798;48.858;9.092;2023-09-19T06:38:50;6.72;;;2.53;;
26020;SDS011;13798;48.858;9.092;2023-09-19T06:41:18;8.73;;;2.72;;
26020;SDS011;13798;48.858;9.092;2023-09-19T06:43:44;5.07;;;2.63;;
26020;SDS011;13798;48.858;9.092;2023-09-19T06:46:09;5.27;;;2.50;;
26020;SDS011;13798;48.858;9.092;2023-09-19T06:48:37;4.72;;;2.45;;
26020;SDS011;13798;48.858;9.092;2023-09-19T06:51:03;6.07;;;2.60;;
26020;SDS011;13798;48.858;9.092;2023-09-19T06:53:30;5.38;;;2.83;;
26020;SDS011;13798;48.858;9.092;2023-09-19T06:55:57;5.00;;;2.53;;
26020;SDS011;13798;48.858;9.092;2023-09-19T06:58:23;4.88;;;2.60;;
26020;SDS011;13798;48.858;9.092;2023-09-19T07:00:48;3.93;;;2.50;;
26020;SDS011;13798;48.858;9.092;2023-09-19T07:03:18;5.87;;;2.70;;
26020;SDS011;13798;48.858;9.092;2023-09-19T07:05:47;4.30;;;2.40;;
26020;SDS011;13798;48.858;9.092;2023-09-19T07:08:15;4.97;;;2.67;;
26020;SDS011;13798;48.858;9.092;2023-09-19T07:10:41;4.60;;;2.33;;
26020;SDS011;13798;48.858;9.092;2023-09-19T07:13:13;6.38;;;2.72;;
26020;SDS011;13798;48.858;9.092;2023-09-19T07:15:42;4.35;;;2.55;;
26020;SDS011;13798;48.858;9.092;2023-09-19T07:18:15;5.18;;;2.88;;
26020;SDS011;13798;48.858;9.092;2023-09-19T07:20:42;3.70;;;2.22;;
26020;SDS011;13798;48.858;9.092;2023-09-19T07:23:18;7.68;;;2.92;;
26020;SDS011;13798;48.858;9.092;2023-09-19T07:25:47;5.38;;;2.65;;
26020;SDS011;13798;48.858;9.092;2023-09-19T07:28:13;3.55;;;2.17;;
26020;SDS011;13798;48.858;9.092;2023-09-19T07:30:39;5.40;;;3.05;;
26020;SDS011;13798;48.858;9.092;2023-09-19T07:33:06;6.18;;;2.78;;
26020;SDS011;13798;48.858;9.092;2023-09-19T07:35:36;4.63;;;2.33;;
26020;SDS011;13798;48.858;9.092;2023-09-19T07:38:04;4.47;;;2.65;;
26020;SDS011;13798;48.858;9.092;2023-09-19T08:34:52;2.33;;;1.88;;
26020;SDS011;13798;48.858;9.092;2023-09-19T08:37:18;4.50;;;2.10;;
26020;SDS011;13798;48.858;9.092;2023-09-19T08:39:43;3.78;;;2.20;;
26020;SDS011;13798;48.858;9.092;2023-09-19T08:42:09;4.53;;;2.27;;
26020;SDS011;13798;48.858;9.092;2023-09-19T08:44:36;4.85;;;2.28;;
26020;SDS011;13798;48.858;9.092;2023-09-19T08:47:11;3.85;;;2.13;;
26020;SDS011;13798;48.858;9.092;2023-09-19T08:52:32;2.97;;;2.13;;
26020;SDS011;13798;48.858;9.092;2023-09-19T08:55:01;3.97;;;2.45;;
26020;SDS011;13798;48.858;9.092;2023-09-19T08:57:32;2.97;;;2.05;;
26020;SDS011;13798;48.858;9.092;2023-09-19T08:59:59;3.65;;;2.30;;
26020;SDS011;13798;48.858;9.092;2023-09-19T09:02:26;4.72;;;2.03;;
26020;SDS011;13798;48.858;9.092;2023-09-19T09:04:53;2.97;;;2.13;;
26020;SDS011;13798;48.858;9.092;2023-09-19T09:07:19;3.92;;;2.33;;
26020;SDS011;13798;48.858;9.092;2023-09-19T09:09:46;3.35;;;2.33;;
26020;SDS011;13798;48.858;9.092;2023-09-19T09:12:13;2.95;;;2.08;;
26020;SDS011;13798;48.858;9.092;2023-09-19T09:14:43;2.35;;;2.13;;
26020;SDS011;13798;48.858;9.092;2023-09-19T09:17:10;2.42;;;1.88;;
26020;SDS011;13798;48.858;9.092;2023-09-19T09:19:36;2.42;;;2.00;;
26020;SDS011;13798;48.858;9.092;2023-09-19T09:22:06;3.50;;;2.13;;
26020;SDS011;13798;48.858;9.092;2023-09-19T09:24:35;2.67;;;1.98;;
26020;SDS011;13798;48.858;9.092;2023-09-19T09:27:04;2.70;;;2.20;;
26020;SDS011;13798;48.858;9.092;2023-09-19T09:29:43;4.20;;;2.05;;
26020;SDS011;13798;48.858;9.092;2023-09-19T09:32:18;4.88;;;2.50;;
26020;SDS011;13798;48.858;9.092;2023-09-19T09:34:52;3.58;;;1.98;;
26020;SDS011;13798;48.858;9.092;2023-09-19T09:37:23;4.60;;;2.30;;
26020;SDS011;13798;48.858;9.092;2023-09-19T09:40:05;3.08;;;2.00;;
26020;SDS011;13798;48.858;9.092;2023-09-19T09:42:40;3.60;;;2.10;;
26020;SDS011;13798;48.858;9.092;2023-09-19T09:45:22;3.63;;;1.83;;
26020;SDS011;13798;48.858;9.092;2023-09-19T09:48:00;2.30;;;1.90;;
26020;SDS011;13798;48.858;9.092;2023-09-19T09:50:38;3.30;;;2.10;;
26020;SDS011;13798;48.858;9.092;2023-09-19T09:58:34;3.83;;;2.30;;
26020;SDS011;13798;48.858;9.092;2023-09-19T10:01:14;3.25;;;1.92;;
26020;SDS011;13798;48.858;9.092;2023-09-19T10:03:41;3.97;;;2.23;;
26020;SDS011;13798;48.858;9.092;2023-09-19T10:06:18;3.50;;;2.00;;
26020;SDS011;13798;48.858;9.092;2023-09-19T10:09:02;4.75;;;2.10;;
26020;SDS011;13798;48.858;9.092;2023-09-19T10:12:05;4.15;;;1.98;;
26020;SDS011;13798;48.858;9.092;2023-09-19T10:14:34;2.60;;;1.80;;
26020;SDS011;13798;48.858;9.092;2023-09-19T10:17:03;4.28;;;2.10;;
26020;SDS011;13798;48.858;9.092;2023-09-19T10:19:35;2.77;;;2.00;;
26020;SDS011;13798;48.858;9.092;2023-09-19T10:22:02;4.80;;;2.00;;
26020;SDS011;13798;48.858;9.092;2023-09-19T10:24:30;2.90;;;2.03;;
26020;SDS011;13798;48.858;9.092;2023-09-19T10:27:01;3.58;;;1.77;;
26020;SDS011;13798;48.858;9.092;2023-09-19T10:29:28;2.72;;;1.90;;
26020;SDS011;13798;48.858;9.092;2023-09-19T10:31:57;2.00;;;1.73;;
26020;SDS011;13798;48.858;9.092;2023-09-19T10:34:25;3.00;;;2.07;;
26020;SDS011;13798;48.858;9.092;2023-09-19T10:36:51;2.20;;;1.90;;
26020;SDS011;13798;48.858;9.092;2023-09-19T10:39:18;2.45;;;1.83;;
26020;SDS011;13798;48.858;9.092;2023-09-19T10:41:47;3.83;;;1.97;;
26020;SDS011;13798;48.858;9.092;2023-09-19T10:44:25;2.58;;;1.75;;
26020;SDS011;13798;48.858;9.092;2023-09-19T10:46:54;1.92;;;1.70;;
26020;SDS011;13798;48.858;9.092;2023-09-19T10:49:20;2.30;;;1.67;;
26020;SDS011;13798;48.858;9.092;2023-09-19T10:51:47;2.55;;;1.70;;
26020;SDS011;13798;48.858;9.092;2023-09-19T10:54:17;2.97;;;1.80;;
26020;SDS011;13798;48.858;9.092;2023-09-19T10:56:46;3.42;;;1.83;;
26020;SDS011;13798;48.858;9.092;2023-09-19T10:59:15;2.60;;;1.83;;
26020;SDS011;13798;48.858;9.092;2023-09-19T11:04:28;2.22;;;1.90;;
26020;SDS011;13798;48.858;9.092;2023-09-19T11:06:59;3.57;;;1.57;;
26020;SDS011;13798;48.858;9.092;2023-09-19T11:09:50;3.73;;;1.90;;
26020;SDS011;13798;48.858;9.092;2023-09-19T11:14:57;4.00;;;2.00;;
26020;SDS011;13798;48.858;9.092;2023-09-19T11:17:29;3.08;;;1.92;;
26020;SDS011;13798;48.858;9.092;2023-09-19T11:30:39;3.88;;;1.90;;
26020;SDS011;13798;48.858;9.092;2023-09-19T11:36:02;3.75;;;1.80;;
26020;SDS011;13798;48.858;9.092;2023-09-19T11:43:53;4.70;;;1.80;;
26020;SDS011;13798;48.858;9.092;2023-09-19T11:46:51;4.55;;;2.00;;
26020;SDS011;13798;48.858;9.092;2023-09-19T11:49:19;3.08;;;1.80;;
26020;SDS011;13798;48.858;9.092;2023-09-19T11:51:54;2.90;;;1.90;;
26020;SDS011;13798;48.858;9.092;2023-09-19T11:54:21;3.67;;;1.65;;
26020;SDS011;13798;48.858;9.092;2023-09-19T11:56:50;2.95;;;1.92;;
26020;SDS011;13798;48.858;9.092;2023-09-19T11:59:23;2.15;;;1.67;;
26020;SDS011;13798;48.858;9.092;2023-09-19T12:01:53;2.15;;;1.73;;
26020;SDS011;13798;48.858;9.092;2023-09-19T12:07:20;3.40;;;1.83;;
26020;SDS011;13798;48.858;9.092;2023-09-19T12:09:51;3.38;;;1.83;;
26020;SDS011;13798;48.858;9.092;2023-09-19T12:12:31;3.78;;;1.70;;
26020;SDS011;13798;48.858;9.092;2023-09-19T12:14:58;2.20;;;1.83;;
26020;SDS011;13798;48.858;9.092;2023-09-19T12:17:24;4.38;;;1.88;;
26020;SDS011;13798;48.858;9.092;2023-09-19T12:20:04;2.40;;;1.83;;
26020;SDS011;13798;48.858;9.092;2023-09-19T12:22:40;2.95;;;1.60;;
26020;SDS011;13798;48.858;9.092;2023-09-19T12:25:08;3.45;;;1.75;;
26020;SDS011;13798;48.858;9.092;2023-09-19T12:27:46;3.35;;;1.65;;
26020;SDS011;13798;48.858;9.092;2023-09-19T12:30:13;3.17;;;1.55;;
26020;SDS011;13798;48.858;9.092;2023-09-19T12:32:42;2.80;;;1.60;;
26020;SDS011;13798;48.858;9.092;2023-09-19T12:35:07;2.20;;;1.67;;
26020;SDS011;13798;48.858;9.092;2023-09-19T12:37:36;2.42;;;1.60;;
26020;SDS011;13798;48.858;9.092;2023-09-19T12:40:10;3.17;;;1.60;;
26020;SDS011;13798;48.858;9.092;2023-09-19T12:42:47;3.90;;;1.95;;
26020;SDS011;13798;48.858;9.092;2023-09-19T12:45:14;3.47;;;1.87;;
26020;SDS011;13798;48.858;9.092;2023-09-19T12:53:36;2.58;;;1.70;;
26020;SDS011;13798;48.858;9.092;2023-09-19T12:56:11;1.60;;;1.50;;
26020;SDS011;13798;48.858;9.092;2023-09-19T12:58:48;2.70;;;1.43;;
26020;SDS011;13798;48.858;9.092;2023-09-19T13:01:21;2.77;;;1.60;;
26020;SDS011;13798;48.858;9.092;2023-09-19T13:06:40;4.45;;;2.00;;
26020;SDS011;13798;48.858;9.092;2023-09-19T13:09:08;2.20;;;1.50;;
26020;SDS011;13798;48.858;9.092;2023-09-19T13:11:38;5.22;;;1.83;;
26020;SDS011;13798;48.858;9.092;2023-09-19T13:14:16;2.58;;;1.42;;
26020;SDS011;13798;48.858;9.092;2023-09-19T13:19:35;3.40;;;1.73;;
26020;SDS011;13798;48.858;9.092;2023-09-19T13:22:01;2.70;;;1.85;;
26020;SDS011;13798;48.858;9.092;2023-09-19T13:24:27;2.63;;;1.70;;
26020;SDS011;13798;48.858;9.092;2023-09-19T13:26:55;3.05;;;1.80;;
26020;SDS011;13798;48.858;9.092;2023-09-19T13:29:21;3.55;;;2.08;;
26020;SDS011;13798;48.858;9.092;2023-09-19T13:31:50;1.98;;;1.70;;
26020;SDS011;13798;48.858;9.092;2023-09-19T13:34:20;2.07;;;1.67;;
26020;SDS011;13798;48.858;9.092;2023-09-19T13:36:46;3.55;;;1.60;;
26020;SDS011;13798;48.858;9.092;2023-09-19T13:39:15;3.08;;;1.60;;
26020;SDS011;13798;48.858;9.092;2023-09-19T13:41:41;2.72;;;1.98;;
26020;SDS011;13798;48.858;9.092;2023-09-19T13:44:12;2.13;;;1.92;;
26020;SDS011;13798;48.858;9.092;2023-09-19T13:46:38;2.67;;;1.65;;
26020;SDS011;13798;48.858;9.092;2023-09-19T13:49:05;2.20;;;2.00;;
26020;SDS011;13798;48.858;9.092;2023-09-19T13:51:31;1.97;;;1.60;;
26020;SDS011;13798;48.858;9.092;2023-09-19T13:53:57;2.67;;;1.75;;
26020;SDS011;13798;48.858;9.092;2023-09-19T13:56:24;2.63;;;1.67;;
26020;SDS011;13798;48.858;9.092;2023-09-19T13:58:52;2.60;;;1.50;;
26020;SDS011;13798;48.858;9.092;2023-09-19T14:01:18;2.90;;;1.80;;
26020;SDS011;13798;48.858;9.092;2023-09-19T14:03:44;1.93;;;1.50;;
26020;SDS011;13798;48.858;9.092;2023-09-19T14:06:14;2.50;;;1.70;;
26020;SDS011;13798;48.858;9.092;2023-09-19T14:52:44;3.33;;;1.58;;
26020;SDS011;13798;48.858;9.092;2023-09-19T14:55:10;2.85;;;1.90;;
26020;SDS011;13798;48.858;9.092;2023-09-19T14:57:39;2.20;;;1.53;;
26020;SDS011;13798;48.858;9.092;2023-09-19T15:00:05;2.53;;;1.50;;
26020;SDS011;13798;48.858;9.092;2023-09-19T15:02:36;3.75;;;1.80;;
26020;SDS011;13798;48.858;9.092;2023-09-19T15:05:02;3.13;;;1.75;;
26020;SDS011;13798;48.858;9.092;2023-09-19T15:07:28;1.88;;;1.50;;
26020;SDS011;13798;48.858;9.092;2023-09-19T15:09:54;2.75;;;1.60;;
26020;SDS011;13798;48.858;9.092;2023-09-19T15:12:19;3.53;;;1.73;;
26020;SDS011;13798;48.858;9.092;2023-09-19T15:14:45;2.22;;;1.65;;
26020;SDS011;13798;48.858;9.092;2023-09-19T15:17:11;4.07;;;1.70;;
26020;SDS011;13798;48.858;9.092;2023-09-19T15:19:36;3.00;;;1.70;;
26020;SDS011;13798;48.858;9.092;2023-09-19T15:22:02;2.63;;;1.33;;
26020;SDS011;13798;48.858;9.092;2023-09-19T15:24:28;3.00;;;1.60;;
26020;SDS011;13798;48.858;9.092;2023-09-19T15:26:54;2.90;;;1.60;;
26020;SDS011;13798;48.858;9.092;2023-09-19T15:29:20;2.20;;;1.47;;
26020;SDS011;13798;48.858;9.092;2023-09-19T15:31:46;2.20;;;1.65;;
26020;SDS011;13798;48.858;9.092;2023-09-19T15:34:11;2.00;;;1.50;;
26020;SDS011;13798;48.858;9.092;2023-09-19T15:36:40;3.45;;;1.38;;
26020;SDS011;13798;48.858;9.092;2023-09-19T15:39:07;4.60;;;1.85;;
26020;SDS011;13798;48.858;9.092;2023-09-19T15:41:36;1.85;;;1.45;;
26020;SDS011;13798;48.858;9.092;2023-09-19T15:44:03;2.25;;;1.40;;
26020;SDS011;13798;48.858;9.092;2023-09-19T15:46:29;2.42;;;1.40;;
26020;SDS011;13798;48.858;9.092;2023-09-19T15:49:00;2.30;;;1.70;;
26020;SDS011;13798;48.858;9.092;2023-09-19T15:51:26;2.17;;;1.63;;
26020;SDS011;13798;48.858;9.092;2023-09-19T15:53:52;2.10;;;1.60;;
26020;SDS011;13798;48.858;9.092;2023-09-19T15:56:19;2.63;;;1.90;;
26020;SDS011;13798;48.858;9.092;2023-09-19T15:58:49;3.10;;;1.60;;
26020;SDS011;13798;48.858;9.092;2023-09-19T16:01:15;2.92;;;1.60;;
26020;SDS011;13798;48.858;9.092;2023-09-19T16:03:48;3.47;;;1.63;;
26020;SDS011;13798;48.858;9.092;2023-09-19T16:06:15;3.05;;;1.40;;
26020;SDS011;13798;48.858;9.092;2023-09-19T16:08:49;6.40;;;1.90;;
26020;SDS011;13798;48.858;9.092;2023-09-19T16:11:16;4.00;;;1.60;;
26020;SDS011;13798;48.858;9.092;2023-09-19T16:13:43;4.43;;;1.45;;
26020;SDS011;13798;48.858;9.092;2023-09-19T16:16:11;2.78;;;1.50;;
26020;SDS011;13798;48.858;9.092;2023-09-19T16:18:37;1.80;;;1.50;;
26020;SDS011;13798;48.858;9.092;2023-09-19T16:21:04;2.95;;;1.95;;
26020;SDS011;13798;48.858;9.092;2023-09-19T16:23:33;3.70;;;1.50;;
26020;SDS011;13798;48.858;9.092;2023-09-19T16:26:04;3.08;;;1.70;;
26020;SDS011;13798;48.858;9.092;2023-09-19T16:28:38;1.88;;;1.58;;
26020;SDS011;13798;48.858;9.092;2023-09-19T16:31:04;3.50;;;1.60;;
26020;SDS011;13798;48.858;9.092;2023-09-19T16:33:31;1.95;;;1.42;;
26020;SDS011;13798;48.858;9.092;2023-09-19T16:36:12;3.17;;;1.67;;
26020;SDS011;13798;48.858;9.092;2023-09-19T16:38:39;5.65;;;2.05;;
26020;SDS011;13798;48.858;9.092;2023-09-19T16:41:08;4.90;;;1.67;;
26020;SDS011;13798;48.858;9.092;2023-09-19T16:43:34;3.27;;;1.50;;
26020;SDS011;13798;48.858;9.092;2023-09-19T16:46:01;2.85;;;1.58;;
26020;SDS011;13798;48.858;9.092;2023-09-19T16:48:29;4.13;;;1.88;;
26020;SDS011;13798;48.858;9.092;2023-09-19T16:50:58;2.95;;;1.45;;
26020;SDS011;13798;48.858;9.092;2023-09-19T16:53:27;2.38;;;1.75;;
26020;SDS011;13798;48.858;9.092;2023-09-19T16:55:52;1.73;;;1.30;;
26020;SDS011;13798;48.858;9.092;2023-09-19T16:58:18;1.97;;;1.53;;
26020;SDS011;13798;48.858;9.092;2023-09-19T17:00:43;2.97;;;1.67;;
26020;SDS011;13798;48.858;9.092;2023-09-19T17:03:12;1.70;;;1.55;;
26020;SDS011;13798;48.858;9.092;2023-09-19T17:05:38;1.85;;;1.27;;
26020;SDS011;13798;48.858;9.092;2023-09-19T17:08:07;2.35;;;1.60;;
26020;SDS011;13798;48.858;9.092;2023-09-19T17:10:33;1.98;;;1.40;;
26020;SDS011;13798;48.858;9.092;2023-09-19T17:13:00;2.53;;;1.40;;
26020;SDS011;13798;48.858;9.092;2023-09-19T17:15:26;2.63;;;1.57;;
26020;SDS011;13798;48.858;9.092;2023-09-19T17:17:52;3.10;;;1.90;;
26020;SDS011;13798;48.858;9.092;2023-09-19T17:20:18;2.38;;;1.50;;
26020;SDS011;13798;48.858;9.092;2023-09-19T17:22:44;3.47;;;1.83;;
26020;SDS011;13798;48.858;9.092;2023-09-19T17:25:10;2.97;;;1.73;;
26020;SDS011;13798;48.858;9.092;2023-09-19T17:27:37;2.50;;;1.70;;
26020;SDS011;13798;48.858;9.092;2023-09-19T17:30:04;2.65;;;1.50;;
26020;SDS011;13798;48.858;9.092;2023-09-19T17:32:34;3.35;;;1.60;;
26020;SDS011;13798;48.858;9.092;2023-09-19T17:34:59;2.35;;;1.50;;
26020;SDS011;13798;48.858;9.092;2023-09-19T17:37:25;1.80;;;1.70;;
26020;SDS011;13798;48.858;9.092;2023-09-19T17:39:51;2.25;;;1.45;;
26020;SDS011;13798;48.858;9.092;2023-09-19T17:42:16;3.13;;;1.60;;
26020;SDS011;13798;48.858;9.092;2023-09-19T17:44:42;2.20;;;1.80;;
26020;SDS011;13798;48.858;9.092;2023-09-19T17:47:07;2.25;;;1.80;;
26020;SDS011;13798;48.858;9.092;2023-09-19T17:49:33;7.27;;;1.80;;
26020;SDS011;13798;48.858;9.092;2023-09-19T17:51:58;8.43;;;1.70;;
26020;SDS011;13798;48.858;9.092;2023-09-19T17:54:24;2.38;;;1.50;;
26020;SDS011;13798;48.858;9.092;2023-09-19T17:56:50;4.03;;;1.50;;
26020;SDS011;13798;48.858;9.092;2023-09-19T17:59:16;3.10;;;1.43;;
26020;SDS011;13798;48.858;9.092;2023-09-19T18:01:42;3.80;;;1.73;;
26020;SDS011;13798;48.858;9.092;2023-09-19T18:04:08;4.80;;;1.40;;
26020;SDS011;13798;48.858;9.092;2023-09-19T18:06:35;2.83;;;1.95;;
26020;SDS011;13798;48.858;9.092;2023-09-19T18:09:02;6.30;;;1.80;;
26020;SDS011;13798;48.858;9.092;2023-09-19T18:11:32;6.93;;;1.83;;
26020;SDS011;13798;48.858;9.092;2023-09-19T18:13:57;8.98;;;2.20;;
26020;SDS011;13798;48.858;9.092;2023-09-19T18:16:24;7.72;;;2.55;;
26020;SDS011;13798;48.858;9.092;2023-09-19T18:18:52;6.13;;;2.80;;
26020;SDS011;13798;48.858;9.092;2023-09-19T18:21:20;8.20;;;2.90;;
26020;SDS011;13798;48.858;9.092;2023-09-19T18:23:52;6.10;;;2.80;;
26020;SDS011;13798;48.858;9.092;2023-09-19T18:26:22;5.38;;;2.80;;
26020;SDS011;13798;48.858;9.092;2023-09-19T18:28:48;5.90;;;2.83;;
26020;SDS011;13798;48.858;9.092;2023-09-19T18:31:14;4.88;;;2.58;;
26020;SDS011;13798;48.858;9.092;2023-09-19T18:33:40;4.15;;;2.45;;
26020;SDS011;13798;48.858;9.092;2023-09-19T18:36:06;5.37;;;2.63;;
26020;SDS011;13798;48.858;9.092;2023-09-19T18:38:41;4.22;;;2.60;;
26020;SDS011;13798;48.858;9.092;2023-09-19T18:41:09;4.70;;;2.27;;
26020;SDS011;13798;48.858;9.092;2023-09-19T18:43:37;5.20;;;2.60;;
26020;SDS011;13798;48.858;9.092;2023-09-19T18:46:03;3.42;;;2.40;;
26020;SDS011;13798;48.858;9.092;2023-09-19T18:48:38;3.85;;;2.22;;
26020;SDS011;13798;48.858;9.092;2023-09-19T18:51:09;5.75;;;2.40;;
26020;SDS011;13798;48.858;9.092;2023-09-19T18:53:37;6.65;;;2.67;;
26020;SDS011;13798;48.858;9.092;2023-09-19T18:58:29;4.63;;;2.50;;
26020;SDS011;13798;48.858;9.092;2023-09-19T19:01:05;5.13;;;2.22;;
26020;SDS011;13798;48.858;9.092;2023-09-19T19:03:32;4.38;;;2.30;;
26020;SDS011;13798;48.858;9.092;2023-09-19T19:06:09;6.25;;;2.67;;
26020;SDS011;13798;48.858;9.092;2023-09-19T19:08:51;6.63;;;2.35;;
26020;SDS011;13798;48.858;9.092;2023-09-19T19:11:17;5.20;;;2.08;;
26020;SDS011;13798;48.858;9.092;2023-09-19T19:13:46;2.90;;;1.65;;
26020;SDS011;13798;48.858;9.092;2023-09-19T19:16:11;3.90;;;2.20;;
26020;SDS011;13798;48.858;9.092;2023-09-19T19:18:38;2.97;;;2.15;;
26020;SDS011;13798;48.858;9.092;2023-09-19T19:21:05;4.30;;;2.20;;
26020;SDS011;13798;48.858;9.092;2023-09-19T19:23:36;5.15;;;2.35;;
26020;SDS011;13798;48.858;9.092;2023-09-19T19:26:02;4.90;;;2.22;;
26020;SDS011;13798;48.858;9.092;2023-09-19T19:28:32;4.78;;;2.60;;
26020;SDS011;13798;48.858;9.092;2023-09-19T19:30:59;4.25;;;2.42;;
26020;SDS011;13798;48.858;9.092;2023-09-19T19:33:25;3.17;;;2.00;;
26020;SDS011;13798;48.858;9.092;2023-09-19T19:35:51;4.22;;;2.78;;
26020;SDS011;13798;48.858;9.092;2023-09-19T19:38:17;3.00;;;2.40;;
26020;SDS011;13798;48.858;9.092;2023-09-19T19:40:44;5.07;;;2.15;;
26020;SDS011;13798;48.858;9.092;2023-09-19T19:43:10;3.70;;;2.40;;
26020;SDS011;13798;48.858;9.092;2023-09-19T19:45:36;5.85;;;2.30;;
26020;SDS011;13798;48.858;9.092;2023-09-19T19:48:01;5.00;;;2.20;;
26020;SDS011;13798;48.858;9.092;2023-09-19T19:50:31;4.70;;;2.87;;
26020;SDS011;13798;48.858;9.092;2023-09-19T19:53:03;4.43;;;2.80;;
26020;SDS011;13798;48.858;9.092;2023-09-19T19:55:31;4.07;;;2.53;;
26020;SDS011;13798;48.858;9.092;2023-09-19T19:57:56;5.85;;;2.60;;
26020;SDS011;13798;48.858;9.092;2023-09-19T20:00:23;4.75;;;2.60;;
26020;SDS011;13798;48.858;9.092;2023-09-19T20:02:49;3.78;;;2.55;;
26020;SDS011;13798;48.858;9.092;2023-09-19T20:05:15;3.47;;;2.37;;
26020;SDS011;13798;48.858;9.092;2023-09-19T20:07:41;5.07;;;2.55;;
26020;SDS011;13798;48.858;9.092;2023-09-19T20:10:08;3.20;;;2.30;;
26020;SDS011;13798;48.858;9.092;2023-09-19T20:12:37;4.32;;;2.30;;
26020;SDS011;13798;48.858;9.092;2023-09-19T20:15:03;3.57;;;2.63;;
26020;SDS011;13798;48.858;9.092;2023-09-19T20:17:29;2.75;;;2.38;;
26020;SDS011;13798;48.858;9.092;2023-09-19T20:19:58;3.75;;;2.35;;
26020;SDS011;13798;48.858;9.092;2023-09-19T20:22:28;4.10;;;2.80;;
26020;SDS011;13798;48.858;9.092;2023-09-19T20:24:54;3.70;;;2.30;;
26020;SDS011;13798;48.858;9.092;2023-09-19T20:27:24;4.47;;;2.55;;
26020;SDS011;13798;48.858;9.092;2023-09-19T20:29:53;4.50;;;2.70;;
26020;SDS011;13798;48.858;9.092;2023-09-19T20:32:21;2.58;;;2.20;;
26020;SDS011;13798;48.858;9.092;2023-09-19T20:34:46;4.73;;;2.20;;
26020;SDS011;13798;48.858;9.092;2023-09-19T20:37:12;7.40;;;2.30;;
26020;SDS011;13798;48.858;9.092;2023-09-19T20:39:39;4.40;;;2.53;;
26020;SDS011;13798;48.858;9.092;2023-09-19T20:42:04;4.00;;;2.50;;
26020;SDS011;13798;48.858;9.092;2023-09-19T20:44:30;4.30;;;2.60;;
26020;SDS011;13798;48.858;9.092;2023-09-19T20:46:55;4.20;;;2.60;;
